createdAt,value
2019-03-10T00:00:22.193Z,3.80
2019-03-10T00:02:50.747Z,3.80
2019-03-10T00:05:19.325Z,3.80
2019-03-10T00:07:47.875Z,3.80
2019-03-10T00:10:16.448Z,3.80
2019-03-10T00:12:44.996Z,3.80
2019-03-10T00:15:14.009Z,3.80
2019-03-10T00:17:42.628Z,3.80
2019-03-10T00:20:11.636Z,3.90
2019-03-10T00:22:40.187Z,4.10
2019-03-10T00:25:10.098Z,4.20
2019-03-10T00:27:38.650Z,4.30
2019-03-10T00:30:10.224Z,4.30
2019-03-10T00:32:38.845Z,4.40
2019-03-10T00:35:07.489Z,4.50
2019-03-10T00:37:36.043Z,4.60
2019-03-10T00:40:24.053Z,4.70
2019-03-10T00:43:15.261Z,4.80
2019-03-10T00:46:07.491Z,4.80
2019-03-10T00:48:50.682Z,4.80
2019-03-10T00:51:55.557Z,4.80
2019-03-10T00:54:24.113Z,4.80
2019-03-10T00:56:52.762Z,4.80
2019-03-10T00:59:21.695Z,4.90
2019-03-10T01:01:50.272Z,4.90
2019-03-10T01:04:18.813Z,4.90
2019-03-10T01:06:47.393Z,4.90
2019-03-10T01:09:15.949Z,4.90
2019-03-10T01:11:44.666Z,4.90
2019-03-10T01:14:14.495Z,4.90
2019-03-10T01:16:43.870Z,4.90
2019-03-10T01:19:12.418Z,5.00
2019-03-10T01:21:41.129Z,5.00
2019-03-10T01:24:09.681Z,5.00
2019-03-10T01:26:38.253Z,5.10
2019-03-10T01:29:06.812Z,5.10
2019-03-10T01:32:02.520Z,5.10
2019-03-10T01:34:42.837Z,5.10
2019-03-10T01:37:11.414Z,5.10
2019-03-10T01:39:39.966Z,5.10
2019-03-10T01:42:08.592Z,5.10
2019-03-10T01:44:37.090Z,5.10
2019-03-10T01:47:05.733Z,5.10
2019-03-10T01:49:34.288Z,5.10
2019-03-10T01:52:02.870Z,5.10
2019-03-10T01:54:31.421Z,5.10
2019-03-10T01:57:00.061Z,5.10
2019-03-10T01:59:28.682Z,5.10
2019-03-10T02:01:57.253Z,5.10
2019-03-10T02:04:25.810Z,5.20
2019-03-10T02:06:54.385Z,5.20
2019-03-10T02:09:22.942Z,5.30
2019-03-10T02:11:51.512Z,5.30
2019-03-10T02:14:20.064Z,5.30
2019-03-10T02:16:48.649Z,5.30
2019-03-10T02:19:17.201Z,5.30
2019-03-10T02:21:45.797Z,5.40
2019-03-10T02:24:23.425Z,5.40
2019-03-10T02:26:44.569Z,5.40
2019-03-10T02:29:13.122Z,5.40
2019-03-10T02:31:41.702Z,5.40
2019-03-10T02:34:10.270Z,5.40
2019-03-10T02:36:38.835Z,5.50
2019-03-10T02:39:07.863Z,5.50
2019-03-10T02:41:36.433Z,5.50
2019-03-10T02:44:05.061Z,5.50
2019-03-10T02:46:33.634Z,5.60
2019-03-10T02:49:02.184Z,5.60
2019-03-10T02:51:30.766Z,5.60
2019-03-10T02:53:59.337Z,5.60
2019-03-10T02:56:27.903Z,5.60
2019-03-10T02:58:56.466Z,5.70
2019-03-10T03:01:25.038Z,5.70
2019-03-10T03:03:53.589Z,5.60
2019-03-10T03:06:22.505Z,5.60
2019-03-10T03:08:51.057Z,5.60
2019-03-10T03:11:19.634Z,5.50
2019-03-10T03:13:48.190Z,5.70
2019-03-10T03:16:16.762Z,5.80
2019-03-10T03:18:45.314Z,5.80
2019-03-10T03:21:13.890Z,6.00
2019-03-10T03:23:42.442Z,6.00
2019-03-10T03:26:11.019Z,5.90
2019-03-10T03:28:39.573Z,6.00
2019-03-10T03:31:08.150Z,6.00
2019-03-10T03:33:36.714Z,5.90
2019-03-10T03:36:08.362Z,5.90
2019-03-10T03:38:43.061Z,6.00
2019-03-10T03:41:17.579Z,6.10
2019-03-10T03:43:46.129Z,5.90
2019-03-10T03:46:14.701Z,5.90
2019-03-10T03:48:43.266Z,5.90
2019-03-10T03:51:11.839Z,6.00
2019-03-10T03:53:40.389Z,5.90
2019-03-10T03:56:08.969Z,5.90
2019-03-10T03:58:37.526Z,5.90
2019-03-10T04:01:10.913Z,5.90
2019-03-10T04:03:39.482Z,5.80
2019-03-10T04:06:08.034Z,5.80
2019-03-10T04:08:36.621Z,5.80
2019-03-10T04:11:05.180Z,5.80
2019-03-10T04:13:33.759Z,5.80
2019-03-10T04:16:02.314Z,5.70
2019-03-10T04:18:30.926Z,5.70
2019-03-10T04:20:59.481Z,5.80
2019-03-10T04:23:28.056Z,5.70
2019-03-10T04:25:56.609Z,5.80
2019-03-10T04:28:25.190Z,5.80
2019-03-10T04:30:53.747Z,5.80
2019-03-10T04:33:22.334Z,5.80
2019-03-10T04:35:50.883Z,5.90
2019-03-10T04:38:19.459Z,5.90
2019-03-10T04:40:48.014Z,5.90
2019-03-10T04:43:16.594Z,5.70
2019-03-10T04:45:45.145Z,5.80
2019-03-10T04:48:13.717Z,5.80
2019-03-10T04:50:42.268Z,5.90
2019-03-10T04:53:10.845Z,5.80
2019-03-10T04:55:46.540Z,5.70
2019-03-10T04:58:16.686Z,5.70
2019-03-10T05:00:46.886Z,5.70
2019-03-10T05:03:15.456Z,5.60
2019-03-10T05:05:44.037Z,5.70
2019-03-10T05:08:12.588Z,5.70
2019-03-10T05:10:41.138Z,5.60
2019-03-10T05:13:09.713Z,5.60
2019-03-10T05:15:38.261Z,5.70
2019-03-10T05:18:06.838Z,5.70
2019-03-10T05:20:35.398Z,5.70
2019-03-10T05:23:32.949Z,5.80
2019-03-10T05:26:01.942Z,5.90
2019-03-10T05:28:32.553Z,5.90
2019-03-10T05:31:01.113Z,5.90
2019-03-10T05:33:29.738Z,6.00
2019-03-10T05:35:58.292Z,6.00
2019-03-10T05:38:26.878Z,6.00
2019-03-10T05:40:55.424Z,5.90
2019-03-10T05:43:24.001Z,5.90
2019-03-10T05:45:52.569Z,5.90
2019-03-10T05:48:21.145Z,5.90
2019-03-10T05:50:49.706Z,6.10
2019-03-10T05:53:18.295Z,6.00
2019-03-10T05:55:46.844Z,6.10
2019-03-10T05:58:15.417Z,6.00
2019-03-10T06:00:44.001Z,6.10
2019-03-10T06:03:12.577Z,6.10
2019-03-10T06:05:41.128Z,6.30
2019-03-10T06:08:09.704Z,6.40
2019-03-10T06:10:38.288Z,6.40
2019-03-10T06:13:06.827Z,6.50
2019-03-10T06:15:35.372Z,6.70
2019-03-10T06:18:13.149Z,6.70
2019-03-10T06:20:34.153Z,6.70
2019-03-10T06:23:02.733Z,6.70
2019-03-10T06:25:31.290Z,6.70
2019-03-10T06:27:59.871Z,6.60
2019-03-10T06:30:28.422Z,6.60
2019-03-10T06:32:57.002Z,6.60
2019-03-10T06:35:25.562Z,6.60
2019-03-10T06:37:54.138Z,6.60
2019-03-10T06:40:31.804Z,6.50
2019-03-10T06:42:52.932Z,6.60
2019-03-10T06:45:21.555Z,6.80
2019-03-10T06:47:50.126Z,6.70
2019-03-10T06:50:18.681Z,6.70
2019-03-10T06:52:47.289Z,6.80
2019-03-10T06:55:15.816Z,6.90
2019-03-10T06:57:44.387Z,7.00
2019-03-10T07:00:14.085Z,7.10
2019-03-10T07:02:42.663Z,7.10
2019-03-10T07:05:12.458Z,7.10
2019-03-10T07:07:41.096Z,7.10
2019-03-10T07:10:14.894Z,7.10
2019-03-10T07:12:43.477Z,7.10
2019-03-10T07:15:13.216Z,7.10
2019-03-10T07:17:41.849Z,7.10
2019-03-10T07:20:18.218Z,7.00
2019-03-10T07:22:46.805Z,7.00
2019-03-10T07:25:15.585Z,7.00
2019-03-10T07:28:04.155Z,6.80
2019-03-10T07:30:37.366Z,6.80
2019-03-10T07:33:07.751Z,6.90
2019-03-10T07:35:50.281Z,6.80
2019-03-10T07:38:36.954Z,6.90
2019-03-10T07:41:19.507Z,6.70
2019-03-10T07:43:49.754Z,6.20
2019-03-10T07:46:22.977Z,6.00
2019-03-10T07:48:55.595Z,6.10
2019-03-10T07:51:40.618Z,6.00
2019-03-10T07:54:13.697Z,6.20
2019-03-10T07:56:46.686Z,6.10
2019-03-10T07:59:19.830Z,6.00
2019-03-10T08:01:55.773Z,6.00
2019-03-10T08:04:38.013Z,6.10
2019-03-10T08:07:24.389Z,5.90
2019-03-10T08:10:10.096Z,6.10
2019-03-10T08:12:56.764Z,6.10
2019-03-10T08:15:26.977Z,5.90
2019-03-10T08:17:57.186Z,5.80
2019-03-10T08:20:33.277Z,6.00
2019-03-10T08:23:03.473Z,6.00
2019-03-10T08:25:39.432Z,6.00
2019-03-10T08:28:09.631Z,6.10
2019-03-10T08:30:39.849Z,6.20
2019-03-10T08:33:16.148Z,6.20
2019-03-10T08:35:55.354Z,6.10
2019-03-10T08:38:31.444Z,6.20
2019-03-10T08:41:04.735Z,6.20
2019-03-10T08:43:41.021Z,6.20
2019-03-10T08:46:17.077Z,6.00
2019-03-10T08:48:59.277Z,6.10
2019-03-10T08:51:29.447Z,6.20
2019-03-10T08:53:59.661Z,6.20
2019-03-10T08:56:29.921Z,6.20
2019-03-10T08:59:03.305Z,6.10
2019-03-10T09:01:36.218Z,6.00
2019-03-10T09:04:15.389Z,6.10
2019-03-10T09:07:00.881Z,6.30
2019-03-10T09:09:31.103Z,6.30
2019-03-10T09:12:01.306Z,6.20
2019-03-10T09:14:46.538Z,6.30
2019-03-10T09:17:22.502Z,6.30
2019-03-10T09:19:52.758Z,6.40
2019-03-10T09:22:22.962Z,6.40
2019-03-10T09:24:53.178Z,6.40
2019-03-10T09:27:28.331Z,6.50
2019-03-10T09:30:07.156Z,6.70
2019-03-10T09:32:52.298Z,6.70
2019-03-10T09:35:39.033Z,6.70
2019-03-10T09:38:09.241Z,6.90
2019-03-10T09:40:39.458Z,6.90
2019-03-10T09:43:24.718Z,6.90
2019-03-10T09:46:03.918Z,6.90
2019-03-10T09:48:34.125Z,7.00
2019-03-10T09:51:13.382Z,7.00
2019-03-10T09:53:49.617Z,7.10
2019-03-10T09:56:19.829Z,7.10
2019-03-10T09:59:05.973Z,7.20
2019-03-10T10:01:41.932Z,7.30
2019-03-10T10:04:24.127Z,7.40
2019-03-10T10:06:54.341Z,7.30
2019-03-10T10:09:39.541Z,7.40
2019-03-10T10:12:13.735Z,7.30
2019-03-10T10:14:48.736Z,7.30
2019-03-10T10:17:28.257Z,7.40
2019-03-10T10:19:58.449Z,7.30
2019-03-10T10:22:40.852Z,7.40
2019-03-10T10:25:11.133Z,7.50
2019-03-10T10:27:44.526Z,7.50
2019-03-10T10:30:31.581Z,7.50
2019-03-10T10:33:01.773Z,7.60
2019-03-10T10:35:31.982Z,7.50
2019-03-10T10:38:17.974Z,7.40
2019-03-10T10:40:55.864Z,7.30
2019-03-10T10:43:42.581Z,7.40
2019-03-10T10:46:15.548Z,7.50
2019-03-10T10:48:45.733Z,7.60
2019-03-10T10:51:15.953Z,7.60
2019-03-10T10:53:51.679Z,7.50
2019-03-10T10:56:38.001Z,7.20
2019-03-10T10:59:11.201Z,7.20
2019-03-10T11:01:44.445Z,7.40
2019-03-10T11:04:31.418Z,7.50
2019-03-10T11:07:07.373Z,7.50
2019-03-10T11:09:43.342Z,7.50
2019-03-10T11:12:13.554Z,7.50
2019-03-10T11:14:49.516Z,7.60
2019-03-10T11:17:19.763Z,7.60
2019-03-10T11:19:49.921Z,7.50
2019-03-10T11:22:25.762Z,7.50
2019-03-10T11:24:58.961Z,7.60
2019-03-10T11:27:38.280Z,7.60
2019-03-10T11:30:11.777Z,7.70
2019-03-10T11:32:58.579Z,7.80
2019-03-10T11:35:34.721Z,7.70
2019-03-10T11:38:10.913Z,7.80
2019-03-10T11:40:56.050Z,8.10
2019-03-10T11:43:28.941Z,8.30
2019-03-10T11:46:04.653Z,8.40
2019-03-10T11:48:34.849Z,8.50
2019-03-10T11:51:05.065Z,8.40
2019-03-10T11:53:51.461Z,8.50
2019-03-10T11:56:27.842Z,8.80
2019-03-10T11:58:58.038Z,9.30
2019-03-10T12:01:28.254Z,9.60
2019-03-10T12:04:01.141Z,9.70
2019-03-10T12:06:40.606Z,9.60
2019-03-10T12:09:17.169Z,9.70
2019-03-10T12:11:45.741Z,9.60
2019-03-10T12:14:14.317Z,9.40
2019-03-10T12:16:42.868Z,9.30
2019-03-10T12:19:11.421Z,9.30
2019-03-10T12:21:39.993Z,9.40
2019-03-10T12:24:08.541Z,9.40
2019-03-10T12:26:37.123Z,9.50
2019-03-10T12:29:05.745Z,9.50
2019-03-10T12:31:34.316Z,9.60
2019-03-10T12:34:05.187Z,9.70
2019-03-10T12:36:33.133Z,9.80
2019-03-10T12:39:01.654Z,9.80
2019-03-10T12:41:30.221Z,9.80
2019-03-10T12:43:58.773Z,9.80
2019-03-10T12:46:27.351Z,9.80
2019-03-10T12:48:55.901Z,9.90
2019-03-10T12:51:24.639Z,9.80
2019-03-10T12:53:53.225Z,9.80
2019-03-10T12:56:21.853Z,9.80
2019-03-10T12:58:50.405Z,10.10
2019-03-10T13:01:18.966Z,10.30
2019-03-10T13:03:58.086Z,10.40
2019-03-10T13:06:17.741Z,10.50
2019-03-10T13:08:46.317Z,10.30
2019-03-10T13:11:14.878Z,10.20
2019-03-10T13:13:44.066Z,10.20
2019-03-10T13:16:12.654Z,10.20
2019-03-10T13:18:41.276Z,10.30
2019-03-10T13:21:09.770Z,10.50
2019-03-10T13:23:38.347Z,10.60
2019-03-10T13:26:06.903Z,10.70
2019-03-10T13:28:35.477Z,10.70
2019-03-10T13:31:04.104Z,10.70
2019-03-10T13:33:32.679Z,10.90
2019-03-10T13:36:01.250Z,11.00
2019-03-10T13:38:29.835Z,10.90
2019-03-10T13:40:58.397Z,10.80
2019-03-10T13:43:27.039Z,10.70
2019-03-10T13:45:55.589Z,10.60
2019-03-10T13:48:24.235Z,10.50
2019-03-10T13:50:52.813Z,10.40
2019-03-10T13:53:21.373Z,10.40
2019-03-10T13:55:49.925Z,10.40
2019-03-10T13:58:18.501Z,10.40
2019-03-10T14:00:47.216Z,10.50
2019-03-10T14:03:15.822Z,10.50
2019-03-10T14:05:44.372Z,10.50
2019-03-10T14:08:12.955Z,10.50
2019-03-10T14:10:41.505Z,10.50
2019-03-10T14:13:10.081Z,10.50
2019-03-10T14:15:38.633Z,10.40
2019-03-10T14:18:07.209Z,10.30
2019-03-10T14:20:35.766Z,10.30
2019-03-10T14:23:04.342Z,10.50
2019-03-10T14:25:32.980Z,10.40
2019-03-10T14:28:01.618Z,10.40
2019-03-10T14:30:30.177Z,10.30
2019-03-10T14:32:58.748Z,10.10
2019-03-10T14:35:27.314Z,10.10
2019-03-10T14:37:55.886Z,10.10
2019-03-10T14:40:24.509Z,10.20
2019-03-10T14:42:53.090Z,10.20
2019-03-10T14:45:21.783Z,10.10
2019-03-10T14:47:50.357Z,10.00
2019-03-10T14:50:19.753Z,10.00
2019-03-10T14:52:48.473Z,10.00
2019-03-10T14:55:22.945Z,9.90
2019-03-10T14:57:51.524Z,9.80
2019-03-10T15:00:22.885Z,9.80
2019-03-10T15:02:51.525Z,9.70
2019-03-10T15:05:20.076Z,9.30
2019-03-10T15:07:48.724Z,8.80
2019-03-10T15:10:17.336Z,8.50
2019-03-10T15:12:45.913Z,8.20
2019-03-10T15:15:22.784Z,8.00
2019-03-10T15:17:49.543Z,7.90
2019-03-10T15:20:18.545Z,7.70
2019-03-10T15:22:47.101Z,7.60
2019-03-10T15:25:18.062Z,7.70
2019-03-10T15:27:46.749Z,7.80
2019-03-10T15:30:19.818Z,7.80
2019-03-10T15:32:48.378Z,7.90
2019-03-10T15:35:17.017Z,7.90
2019-03-10T15:37:46.337Z,8.00
2019-03-10T15:40:18.746Z,8.10
2019-03-10T15:42:47.470Z,8.00
2019-03-10T15:45:19.230Z,8.00
2019-03-10T15:47:47.769Z,8.10
2019-03-10T15:50:34.473Z,8.20
2019-03-10T15:53:03.053Z,8.30
2019-03-10T15:55:31.606Z,8.30
2019-03-10T15:58:00.177Z,8.30
2019-03-10T16:00:29.042Z,8.40
2019-03-10T16:02:57.954Z,8.70
2019-03-10T16:05:26.505Z,8.90
2019-03-10T16:07:55.070Z,9.00
2019-03-10T16:10:23.705Z,9.10
2019-03-10T16:12:52.349Z,9.00
2019-03-10T16:15:23.330Z,9.20
2019-03-10T16:17:51.883Z,9.30
2019-03-10T16:20:20.457Z,9.40
2019-03-10T16:22:49.018Z,9.40
2019-03-10T16:25:20.332Z,9.30
2019-03-10T16:27:50.062Z,9.30
2019-03-10T16:30:22.738Z,9.30
2019-03-10T16:32:51.299Z,9.30
2019-03-10T16:35:22.121Z,9.20
2019-03-10T16:37:50.080Z,9.20
2019-03-10T16:40:19.793Z,9.30
2019-03-10T16:42:48.415Z,9.30
2019-03-10T16:45:19.600Z,9.20
2019-03-10T16:47:48.221Z,9.10
2019-03-10T16:50:18.933Z,9.00
2019-03-10T16:52:47.486Z,8.90
2019-03-10T16:55:16.129Z,8.80
2019-03-10T16:57:44.684Z,8.60
2019-03-10T17:00:14.663Z,8.60
2019-03-10T17:02:43.494Z,8.60
2019-03-10T17:05:16.998Z,8.60
2019-03-10T17:07:45.618Z,8.50
2019-03-10T17:10:27.082Z,8.50
2019-03-10T17:12:55.802Z,8.50
2019-03-10T17:15:25.314Z,8.60
2019-03-10T17:17:53.867Z,8.60
2019-03-10T17:20:22.459Z,8.60
2019-03-10T17:22:50.998Z,8.50
2019-03-10T17:25:19.657Z,8.60
2019-03-10T17:27:48.201Z,8.70
2019-03-10T17:30:22.231Z,8.80
2019-03-10T17:32:50.932Z,8.70
2019-03-10T17:35:20.445Z,8.70
2019-03-10T17:37:49.168Z,8.80
2019-03-10T17:40:26.809Z,8.70
2019-03-10T17:42:55.429Z,8.70
2019-03-10T17:45:25.810Z,8.70
2019-03-10T17:47:54.424Z,8.70
2019-03-10T17:50:23.064Z,8.80
2019-03-10T17:52:51.614Z,8.80
2019-03-10T17:55:21.330Z,8.90
2019-03-10T17:57:49.941Z,8.80
2019-03-10T18:00:20.929Z,8.70
2019-03-10T18:02:49.490Z,8.70
2019-03-10T18:05:18.063Z,8.70
2019-03-10T18:07:46.613Z,8.70
2019-03-10T18:10:18.674Z,8.50
2019-03-10T18:12:47.226Z,8.60
2019-03-10T18:15:19.109Z,8.60
2019-03-10T18:17:47.807Z,8.50
2019-03-10T18:20:20.814Z,8.30
2019-03-10T18:22:49.365Z,8.40
2019-03-10T18:25:18.004Z,8.20
2019-03-10T18:27:46.553Z,8.10
2019-03-10T18:30:22.474Z,8.10
2019-03-10T18:32:51.102Z,8.10
2019-03-10T18:35:19.669Z,8.00
2019-03-10T18:37:48.471Z,8.00
2019-03-10T18:40:25.141Z,8.10
2019-03-10T18:42:53.697Z,8.00
2019-03-10T18:45:22.601Z,8.00
2019-03-10T18:47:51.164Z,7.90
2019-03-10T18:50:24.095Z,7.70
2019-03-10T18:52:52.654Z,7.80
2019-03-10T18:55:21.576Z,7.80
2019-03-10T18:57:50.126Z,7.80
2019-03-10T19:00:23.694Z,7.80
2019-03-10T19:02:52.245Z,7.70
2019-03-10T19:05:20.826Z,7.70
2019-03-10T19:07:49.381Z,7.70
2019-03-10T19:10:18.032Z,7.70
2019-03-10T19:12:46.578Z,7.70
2019-03-10T19:15:20.326Z,7.60
2019-03-10T19:17:48.888Z,7.70
2019-03-10T19:20:17.584Z,7.70
2019-03-10T19:22:46.154Z,7.70
2019-03-10T19:25:16.040Z,7.70
2019-03-10T19:27:44.757Z,7.60
2019-03-10T19:30:18.065Z,7.70
2019-03-10T19:32:46.644Z,7.60
2019-03-10T19:35:15.259Z,7.50
2019-03-10T19:37:43.839Z,7.40
2019-03-10T19:40:17.321Z,7.50
2019-03-10T19:42:45.966Z,7.50
2019-03-10T19:45:22.609Z,7.60
2019-03-10T19:47:51.192Z,7.60
2019-03-10T19:50:27.257Z,7.60
2019-03-10T19:52:55.776Z,7.70
2019-03-10T19:55:24.318Z,7.60
2019-03-10T19:57:52.902Z,7.60
2019-03-10T20:00:22.087Z,7.60
2019-03-10T20:02:50.730Z,7.60
2019-03-10T20:05:19.346Z,7.60
2019-03-10T20:07:47.917Z,7.60
2019-03-10T20:10:18.478Z,7.50
2019-03-10T20:12:47.350Z,7.60
2019-03-10T20:15:21.140Z,7.50
2019-03-10T20:17:49.702Z,7.50
2019-03-10T20:20:24.193Z,7.50
2019-03-10T20:22:52.771Z,7.50
2019-03-10T20:25:21.321Z,7.50
2019-03-10T20:27:49.898Z,7.20
2019-03-10T20:30:20.749Z,6.70
2019-03-10T20:32:49.340Z,6.40
2019-03-10T20:35:17.966Z,5.80
2019-03-10T20:37:46.521Z,5.30
2019-03-10T20:40:23.066Z,5.00
2019-03-10T20:42:51.639Z,4.80
2019-03-10T20:45:20.250Z,4.80
2019-03-10T20:47:48.894Z,4.70
2019-03-10T20:50:18.687Z,4.60
2019-03-10T20:52:47.264Z,4.40
2019-03-10T20:55:16.150Z,4.30
2019-03-10T20:57:45.099Z,4.10
2019-03-10T21:00:29.753Z,4.10
2019-03-10T21:02:58.329Z,4.00
2019-03-10T21:05:26.928Z,3.90
2019-03-10T21:07:55.502Z,3.90
2019-03-10T21:10:27.548Z,3.90
2019-03-10T21:12:56.117Z,3.80
2019-03-10T21:15:26.181Z,3.70
2019-03-10T21:17:55.280Z,3.70
2019-03-10T21:20:25.069Z,3.70
2019-03-10T21:22:53.709Z,3.60
2019-03-10T21:25:29.923Z,3.60
2019-03-10T21:27:58.494Z,3.60
2019-03-10T21:30:31.719Z,3.50
2019-03-10T21:33:00.354Z,3.60
2019-03-10T21:35:28.907Z,3.50
2019-03-10T21:37:57.486Z,3.50
2019-03-10T21:40:31.399Z,3.40
2019-03-10T21:42:59.973Z,3.40
2019-03-10T21:45:28.517Z,3.40
2019-03-10T21:47:57.097Z,3.30
2019-03-10T21:50:25.724Z,3.20
2019-03-10T21:52:54.301Z,3.20
2019-03-10T21:55:22.849Z,3.20
2019-03-10T21:57:51.427Z,3.20
2019-03-10T22:00:20.522Z,3.10
2019-03-10T22:02:49.436Z,3.10
2019-03-10T22:05:18.253Z,3.10
2019-03-10T22:07:46.830Z,3.00
2019-03-10T22:10:26.917Z,3.00
2019-03-10T22:12:50.421Z,3.00
2019-03-10T22:15:19.916Z,3.00
2019-03-10T22:17:48.765Z,3.00
2019-03-10T22:20:19.330Z,3.00
2019-03-10T22:22:49.601Z,3.00
2019-03-10T22:25:18.318Z,2.90
2019-03-10T22:27:46.889Z,3.00
2019-03-10T22:30:23.140Z,3.00
2019-03-10T22:32:51.713Z,3.00
2019-03-10T22:35:20.287Z,3.00
2019-03-10T22:37:48.842Z,3.00
2019-03-10T22:40:20.527Z,3.00
2019-03-10T22:42:49.097Z,3.00
2019-03-10T22:45:20.917Z,3.00
2019-03-10T22:47:49.495Z,3.00
2019-03-10T22:50:18.118Z,2.90
2019-03-10T22:52:46.719Z,3.00
2019-03-10T22:55:15.881Z,2.90
2019-03-10T22:57:44.470Z,2.90
2019-03-10T23:00:18.990Z,2.90
2019-03-10T23:02:47.649Z,2.90
2019-03-10T23:05:16.210Z,2.90
2019-03-10T23:07:44.770Z,2.90
2019-03-10T23:10:15.215Z,2.80
2019-03-10T23:12:43.789Z,2.80
2019-03-10T23:15:13.485Z,2.80
2019-03-10T23:17:42.201Z,2.80
2019-03-10T23:20:15.579Z,2.80
2019-03-10T23:22:44.222Z,2.80
2019-03-10T23:25:13.427Z,2.80
2019-03-10T23:27:42.426Z,2.40
2019-03-10T23:30:15.805Z,2.10
2019-03-10T23:32:44.386Z,1.90
2019-03-10T23:35:13.008Z,1.70
2019-03-10T23:37:42.249Z,1.80
2019-03-10T23:40:15.695Z,1.80
2019-03-10T23:42:44.220Z,1.70
2019-03-10T23:45:16.973Z,1.70
2019-03-10T23:47:45.550Z,1.70
2019-03-10T23:50:15.846Z,1.80
2019-03-10T23:52:44.554Z,1.80
2019-03-10T23:55:14.442Z,1.80
2019-03-10T23:57:43.019Z,1.90
